This is the latest recevied weather packets stored in our database for station/object W0JRT-6. If no packets are shown the sender has not sent any weather packets the latest 10 day(s).
| Time | Temp. | Humidity | Pressure | Rain* | Wind** | Luminosity | Snow |
|---|---|---|---|---|---|---|---|
| 1777903805 | 20.56° C | 55% | 998.7 hPa | 0 mm | - | - | - |
| 1777903198 | 20° C | 56% | 998.8 hPa | 0 mm | - | - | - |
| 1777902598 | 20° C | 56% | 999.1 hPa | 0 mm | - | - | - |
| 1777902000 | 19.44° C | 56% | 999.2 hPa | 0 mm | - | - | - |
| 1777900811 | 18.89° C | 58% | 999.6 hPa | 0 mm | - | - | - |
| 1777900208 | 18.33° C | 59% | 999.8 hPa | 0 mm | - | - | - |
| 1777899608 | 18.33° C | 60% | 999.9 hPa | 0 mm | - | - | - |
| 1777898403 | 16.67° C | 65% | 1000.4 hPa | 0 mm | - | - | - |
| 1777897808 | 16.11° C | 66% | 1000.5 hPa | 0 mm | - | - | - |
| 1777897198 | 16.11° C | 67% | 1000.7 hPa | 0 mm | - | - | - |
| 1777896605 | 15.56° C | 70% | 1000.8 hPa | 0 mm | - | - | - |
| 1777895998 | 15° C | 71% | 1000.9 hPa | 0 mm | - | - | - |
| 1777895398 | 13.89° C | 76% | 1001 hPa | 0 mm | - | - | - |
| 1777894806 | 13.89° C | 77% | 1001.1 hPa | 0 mm | - | - | - |
| 1777894198 | 13.89° C | 76% | 1001.1 hPa | 0 mm | - | - | - |
| 1777893607 | 13.33° C | 77% | 1001 hPa | 0 mm | - | - | - |
| 1777893011 | 12.78° C | 81% | 1001.1 hPa | 0 mm | - | - | - |
| 1777892402 | 12.22° C | 85% | 1001.2 hPa | 0 mm | - | - | - |
| 1777891809 | 12.22° C | 87% | 1001.3 hPa | 0 mm | - | - | - |
| 1777891198 | 12.22° C | 84% | 1001.4 hPa | 0 mm | - | - | - |
| 1777890607 | 12.78° C | 84% | 1001.6 hPa | 0 mm | - | - | - |
| 1777889999 | 12.78° C | 81% | 1001.6 hPa | 0 mm | - | - | - |
| 1777889398 | 13.33° C | 79% | 1001.6 hPa | 0 mm | - | - | - |
| 1777888798 | 13.33° C | 77% | 1001.6 hPa | 0 mm | - | - | - |
| 1777888198 | 13.89° C | 78% | 1001.5 hPa | 0 mm | - | - | - |
* Rain since midnight (hover to see other rain measurements)
** Current wind speed in m/s (hover to see current wind gust speed)